sensor_id;sensor_type;location;lat;lon;timestamp;pressure;altitude;pressure_sealevel;temperature;humidity
64933;BME280;51446;53.850;10.662;2024-03-23T00:53:10;100677.41;;;6.08;100.00
64933;BME280;51446;53.850;10.662;2024-03-23T00:55:35;100676.53;;;6.09;100.00
64933;BME280;51446;53.850;10.662;2024-03-23T00:58:01;100674.56;;;6.02;100.00
64933;BME280;51446;53.850;10.662;2024-03-23T01:00:26;100675.72;;;6.10;100.00
64933;BME280;51446;53.850;10.662;2024-03-23T01:02:51;100672.06;;;6.05;100.00
64933;BME280;51446;53.850;10.662;2024-03-23T01:05:16;100668.09;;;5.90;100.00
64933;BME280;51446;53.850;10.662;2024-03-23T01:07:42;100668.41;;;5.98;100.00
64933;BME280;51446;53.850;10.662;2024-03-23T01:10:07;100668.00;;;5.87;100.00
64933;BME280;51446;53.850;10.662;2024-03-23T01:12:32;100659.16;;;6.08;100.00
64933;BME280;51446;53.850;10.662;2024-03-23T01:14:57;100656.22;;;5.97;100.00
64933;BME280;51446;53.850;10.662;2024-03-23T01:17:23;100658.59;;;5.91;100.00
64933;BME280;51446;53.850;10.662;2024-03-23T01:19:48;100651.13;;;6.02;100.00
64933;BME280;51446;53.850;10.662;2024-03-23T01:22:14;100651.66;;;5.91;100.00
64933;BME280;51446;53.850;10.662;2024-03-23T01:24:39;100640.53;;;5.70;100.00
64933;BME280;51446;53.850;10.662;2024-03-23T01:27:05;100638.97;;;5.75;100.00
64933;BME280;51446;53.850;10.662;2024-03-23T01:29:30;100639.22;;;5.83;100.00
64933;BME280;51446;53.850;10.662;2024-03-23T01:31:55;100637.31;;;5.77;100.00
64933;BME280;51446;53.850;10.662;2024-03-23T01:34:21;100635.44;;;5.73;100.00
64933;BME280;51446;53.850;10.662;2024-03-23T01:36:46;100623.41;;;5.77;100.00
64933;BME280;51446;53.850;10.662;2024-03-23T01:39:12;100624.34;;;5.79;100.00
64933;BME280;51446;53.850;10.662;2024-03-23T01:41:39;100620.72;;;5.73;100.00
64933;BME280;51446;53.850;10.662;2024-03-23T01:44:07;100618.56;;;5.62;100.00
64933;BME280;51446;53.850;10.662;2024-03-23T01:46:33;100611.53;;;5.58;100.00
64933;BME280;51446;53.850;10.662;2024-03-23T01:48:58;100608.97;;;5.59;100.00
64933;BME280;51446;53.850;10.662;2024-03-23T01:51:24;100608.69;;;5.51;100.00
64933;BME280;51446;53.850;10.662;2024-03-23T01:53:49;100608.75;;;5.53;100.00
64933;BME280;51446;53.850;10.662;2024-03-23T01:56:15;100610.47;;;5.52;100.00
64933;BME280;51446;53.850;10.662;2024-03-23T01:58:40;100604.31;;;5.49;100.00
64933;BME280;51446;53.850;10.662;2024-03-23T02:01:06;100594.53;;;5.69;100.00
64933;BME280;51446;53.850;10.662;2024-03-23T02:03:31;100592.13;;;5.48;100.00
64933;BME280;51446;53.850;10.662;2024-03-23T02:05:57;100593.94;;;5.50;100.00
64933;BME280;51446;53.850;10.662;2024-03-23T02:08:23;100591.13;;;5.44;100.00
64933;BME280;51446;53.850;10.662;2024-03-23T02:10:49;100582.19;;;5.36;100.00
64933;BME280;51446;53.850;10.662;2024-03-23T02:13:15;100581.22;;;5.60;100.00
64933;BME280;51446;53.850;10.662;2024-03-23T02:15:41;100567.53;;;5.38;100.00
64933;BME280;51446;53.850;10.662;2024-03-23T02:18:09;100570.41;;;5.47;100.00
64933;BME280;51446;53.850;10.662;2024-03-23T02:20:35;100572.09;;;5.45;100.00
64933;BME280;51446;53.850;10.662;2024-03-23T02:23:01;100569.91;;;5.32;100.00
64933;BME280;51446;53.850;10.662;2024-03-23T02:25:26;100570.75;;;5.31;100.00
64933;BME280;51446;53.850;10.662;2024-03-23T02:27:52;100573.50;;;5.35;100.00
64933;BME280;51446;53.850;10.662;2024-03-23T02:30:19;100571.63;;;5.31;100.00
64933;BME280;51446;53.850;10.662;2024-03-23T02:32:44;100572.78;;;5.39;100.00
64933;BME280;51446;53.850;10.662;2024-03-23T02:35:10;100567.28;;;5.30;100.00
64933;BME280;51446;53.850;10.662;2024-03-23T02:37:35;100567.38;;;5.33;100.00
64933;BME280;51446;53.850;10.662;2024-03-23T02:40:00;100558.84;;;5.37;100.00
64933;BME280;51446;53.850;10.662;2024-03-23T02:42:26;100556.34;;;5.41;100.00
64933;BME280;51446;53.850;10.662;2024-03-23T02:44:51;100555.78;;;5.24;100.00
64933;BME280;51446;53.850;10.662;2024-03-23T02:47:16;100545.16;;;5.43;100.00
64933;BME280;51446;53.850;10.662;2024-03-23T02:49:41;100540.38;;;5.57;100.00
64933;BME280;51446;53.850;10.662;2024-03-23T02:52:07;100541.19;;;5.27;100.00
64933;BME280;51446;53.850;10.662;2024-03-23T02:54:32;100536.91;;;5.29;100.00
64933;BME280;51446;53.850;10.662;2024-03-23T02:56:57;100537.38;;;5.17;100.00
64933;BME280;51446;53.850;10.662;2024-03-23T02:59:22;100542.09;;;5.03;100.00
64933;BME280;51446;53.850;10.662;2024-03-23T03:01:48;100533.56;;;5.08;100.00
64933;BME280;51446;53.850;10.662;2024-03-23T03:04:13;100526.78;;;5.13;100.00
64933;BME280;51446;53.850;10.662;2024-03-23T03:06:38;100535.06;;;5.01;100.00
64933;BME280;51446;53.850;10.662;2024-03-23T03:09:04;100526.34;;;4.99;100.00
64933;BME280;51446;53.850;10.662;2024-03-23T03:11:29;100519.41;;;4.99;100.00
64933;BME280;51446;53.850;10.662;2024-03-23T03:13:55;100527.94;;;4.95;100.00
64933;BME280;51446;53.850;10.662;2024-03-23T03:16:20;100521.63;;;4.87;100.00
64933;BME280;51446;53.850;10.662;2024-03-23T03:18:45;100524.66;;;4.75;100.00
64933;BME280;51446;53.850;10.662;2024-03-23T03:21:12;100519.41;;;4.74;100.00
64933;BME280;51446;53.850;10.662;2024-03-23T03:23:37;100520.56;;;4.82;100.00
64933;BME280;51446;53.850;10.662;2024-03-23T03:26:03;100524.44;;;4.69;100.00
64933;BME280;51446;53.850;10.662;2024-03-23T03:28:29;100519.06;;;4.89;100.00
64933;BME280;51446;53.850;10.662;2024-03-23T03:30:56;100510.88;;;4.78;100.00
64933;BME280;51446;53.850;10.662;2024-03-23T03:33:22;100512.72;;;4.80;100.00
64933;BME280;51446;53.850;10.662;2024-03-23T03:35:47;100504.38;;;4.65;100.00
64933;BME280;51446;53.850;10.662;2024-03-23T03:38:12;100503.66;;;4.69;100.00
64933;BME280;51446;53.850;10.662;2024-03-23T03:40:37;100512.50;;;4.74;100.00
64933;BME280;51446;53.850;10.662;2024-03-23T03:43:03;100502.78;;;4.68;100.00
64933;BME280;51446;53.850;10.662;2024-03-23T03:45:28;100492.44;;;4.70;100.00
64933;BME280;51446;53.850;10.662;2024-03-23T03:47:53;100494.28;;;4.73;100.00
64933;BME280;51446;53.850;10.662;2024-03-23T03:50:21;100487.09;;;4.65;100.00
64933;BME280;51446;53.850;10.662;2024-03-23T03:52:46;100484.50;;;4.65;100.00
64933;BME280;51446;53.850;10.662;2024-03-23T03:55:13;100489.81;;;4.68;100.00
64933;BME280;51446;53.850;10.662;2024-03-23T03:57:39;100486.16;;;4.63;100.00
64933;BME280;51446;53.850;10.662;2024-03-23T04:00:04;100486.59;;;4.76;100.00
64933;BME280;51446;53.850;10.662;2024-03-23T04:02:30;100484.09;;;4.79;100.00
64933;BME280;51446;53.850;10.662;2024-03-23T04:04:55;100488.81;;;4.91;100.00
64933;BME280;51446;53.850;10.662;2024-03-23T04:07:21;100466.53;;;4.72;100.00
64933;BME280;51446;53.850;10.662;2024-03-23T04:09:47;100480.91;;;4.62;100.00
64933;BME280;51446;53.850;10.662;2024-03-23T04:12:13;100475.84;;;4.66;100.00
64933;BME280;51446;53.850;10.662;2024-03-23T04:14:38;100469.06;;;4.70;100.00
64933;BME280;51446;53.850;10.662;2024-03-23T04:17:03;100466.47;;;4.70;100.00
64933;BME280;51446;53.850;10.662;2024-03-23T04:19:29;100459.44;;;4.67;100.00
64933;BME280;51446;53.850;10.662;2024-03-23T04:21:54;100463.72;;;4.65;100.00
64933;BME280;51446;53.850;10.662;2024-03-23T04:24:19;100457.78;;;4.69;100.00
64933;BME280;51446;53.850;10.662;2024-03-23T04:26:46;100451.81;;;4.72;100.00
64933;BME280;51446;53.850;10.662;2024-03-23T04:29:11;100452.75;;;4.74;100.00
64933;BME280;51446;53.850;10.662;2024-03-23T04:31:37;100451.41;;;4.60;100.00
64933;BME280;51446;53.850;10.662;2024-03-23T04:34:03;100448.13;;;4.65;100.00
64933;BME280;51446;53.850;10.662;2024-03-23T04:36:28;100442.81;;;4.62;100.00
64933;BME280;51446;53.850;10.662;2024-03-23T04:38:54;100452.47;;;4.66;100.00
64933;BME280;51446;53.850;10.662;2024-03-23T04:41:19;100448.25;;;4.68;100.00
64933;BME280;51446;53.850;10.662;2024-03-23T04:43:44;100439.41;;;4.63;100.00
64933;BME280;51446;53.850;10.662;2024-03-23T04:46:09;100431.31;;;4.54;100.00
64933;BME280;51446;53.850;10.662;2024-03-23T04:48:35;100429.63;;;4.56;100.00
64933;BME280;51446;53.850;10.662;2024-03-23T04:51:01;100426.09;;;4.54;100.00
64933;BME280;51446;53.850;10.662;2024-03-23T04:53:26;100416.69;;;4.58;100.00
64933;BME280;51446;53.850;10.662;2024-03-23T04:55:55;100426.16;;;4.56;100.00
64933;BME280;51446;53.850;10.662;2024-03-23T04:58:22;100441.59;;;4.51;100.00
64933;BME280;51446;53.850;10.662;2024-03-23T05:00:53;100446.53;;;4.45;100.00
64933;BME280;51446;53.850;10.662;2024-03-23T05:03:18;100445.22;;;4.56;100.00
64933;BME280;51446;53.850;10.662;2024-03-23T05:05:44;100452.75;;;4.48;100.00
64933;BME280;51446;53.850;10.662;2024-03-23T05:08:09;100451.00;;;4.49;100.00
64933;BME280;51446;53.850;10.662;2024-03-23T05:10:35;100454.16;;;4.64;100.00
64933;BME280;51446;53.850;10.662;2024-03-23T05:13:00;100452.31;;;4.62;100.00
64933;BME280;51446;53.850;10.662;2024-03-23T05:15:25;100442.31;;;4.73;100.00
64933;BME280;51446;53.850;10.662;2024-03-23T05:17:51;100442.03;;;4.65;100.00
64933;BME280;51446;53.850;10.662;2024-03-23T05:20:16;100434.09;;;4.60;100.00
64933;BME280;51446;53.850;10.662;2024-03-23T05:22:41;100426.25;;;4.84;100.00
64933;BME280;51446;53.850;10.662;2024-03-23T05:25:07;100414.78;;;5.05;100.00
64933;BME280;51446;53.850;10.662;2024-03-23T05:27:33;100415.78;;;5.09;100.00
64933;BME280;51446;53.850;10.662;2024-03-23T05:29:58;100409.03;;;4.88;100.00
64933;BME280;51446;53.850;10.662;2024-03-23T05:32:24;100417.16;;;4.72;100.00
64933;BME280;51446;53.850;10.662;2024-03-23T05:34:49;100423.75;;;4.62;100.00
64933;BME280;51446;53.850;10.662;2024-03-23T05:37:20;100435.09;;;4.64;100.00
64933;BME280;51446;53.850;10.662;2024-03-23T05:39:46;100432.59;;;4.67;100.00
64933;BME280;51446;53.850;10.662;2024-03-23T05:42:13;100432.13;;;4.79;100.00
64933;BME280;51446;53.850;10.662;2024-03-23T05:44:39;100429.47;;;5.03;100.00
64933;BME280;51446;53.850;10.662;2024-03-23T05:47:05;100429.75;;;5.12;100.00
64933;BME280;51446;53.850;10.662;2024-03-23T05:49:30;100432.59;;;4.93;100.00
64933;BME280;51446;53.850;10.662;2024-03-23T05:51:55;100421.97;;;5.12;100.00
64933;BME280;51446;53.850;10.662;2024-03-23T05:54:20;100420.41;;;5.17;100.00
64933;BME280;51446;53.850;10.662;2024-03-23T05:56:46;100414.19;;;5.14;100.00
64933;BME280;51446;53.850;10.662;2024-03-23T05:59:11;100426.81;;;5.01;100.00
64933;BME280;51446;53.850;10.662;2024-03-23T06:01:36;100425.16;;;5.03;100.00
64933;BME280;51446;53.850;10.662;2024-03-23T06:04:03;100415.75;;;5.07;100.00
64933;BME280;51446;53.850;10.662;2024-03-23T06:06:29;100414.88;;;5.08;100.00
64933;BME280;51446;53.850;10.662;2024-03-23T06:08:55;100406.66;;;5.49;100.00
64933;BME280;51446;53.850;10.662;2024-03-23T06:11:20;100401.94;;;5.37;100.00
64933;BME280;51446;53.850;10.662;2024-03-23T06:13:46;100397.91;;;5.47;100.00
64933;BME280;51446;53.850;10.662;2024-03-23T06:16:11;100396.72;;;5.66;100.00
64933;BME280;51446;53.850;10.662;2024-03-23T06:18:36;100379.09;;;5.86;100.00
64933;BME280;51446;53.850;10.662;2024-03-23T06:21:02;100385.94;;;5.82;100.00
64933;BME280;51446;53.850;10.662;2024-03-23T06:23:27;100385.25;;;5.88;100.00
64933;BME280;51446;53.850;10.662;2024-03-23T06:25:52;100380.66;;;5.79;100.00
64933;BME280;51446;53.850;10.662;2024-03-23T06:28:18;100386.28;;;5.95;100.00
64933;BME280;51446;53.850;10.662;2024-03-23T06:30:43;100391.16;;;6.13;100.00
64933;BME280;51446;53.850;10.662;2024-03-23T06:33:08;100388.78;;;6.22;100.00
64933;BME280;51446;53.850;10.662;2024-03-23T06:35:34;100394.31;;;6.33;100.00
64933;BME280;51446;53.850;10.662;2024-03-23T06:37:59;100400.66;;;6.42;100.00
64933;BME280;51446;53.850;10.662;2024-03-23T06:40:24;100397.25;;;6.47;100.00
64933;BME280;51446;53.850;10.662;2024-03-23T06:42:50;100397.47;;;6.54;100.00
64933;BME280;51446;53.850;10.662;2024-03-23T06:45:16;100387.47;;;7.06;100.00
64933;BME280;51446;53.850;10.662;2024-03-23T06:47:42;100371.81;;;7.86;100.00
64933;BME280;51446;53.850;10.662;2024-03-23T06:50:07;100371.13;;;7.96;100.00
64933;BME280;51446;53.850;10.662;2024-03-23T06:52:32;100362.09;;;8.70;100.00
64933;BME280;51446;53.850;10.662;2024-03-23T06:54:58;100368.44;;;7.91;100.00
64933;BME280;51446;53.850;10.662;2024-03-23T06:57:23;100373.41;;;8.71;100.00
64933;BME280;51446;53.850;10.662;2024-03-23T06:59:48;100367.56;;;10.16;100.00
64933;BME280;51446;53.850;10.662;2024-03-23T07:02:14;100369.91;;;10.72;100.00
64933;BME280;51446;53.850;10.662;2024-03-23T07:04:40;100375.91;;;10.57;100.00
64933;BME280;51446;53.850;10.662;2024-03-23T07:07:06;100361.41;;;10.12;100.00
64933;BME280;51446;53.850;10.662;2024-03-23T07:09:32;100367.91;;;9.71;100.00
64933;BME280;51446;53.850;10.662;2024-03-23T07:11:57;100370.25;;;10.22;100.00
64933;BME280;51446;53.850;10.662;2024-03-23T07:14:23;100364.28;;;9.62;100.00
64933;BME280;51446;53.850;10.662;2024-03-23T07:16:49;100361.56;;;9.51;100.00
64933;BME280;51446;53.850;10.662;2024-03-23T07:19:15;100360.47;;;9.35;100.00
64933;BME280;51446;53.850;10.662;2024-03-23T07:21:44;100342.25;;;10.19;100.00
64933;BME280;51446;53.850;10.662;2024-03-23T07:24:10;100360.72;;;10.29;100.00
64933;BME280;51446;53.850;10.662;2024-03-23T07:26:35;100363.47;;;9.66;100.00
64933;BME280;51446;53.850;10.662;2024-03-23T07:29:01;100352.22;;;9.73;100.00
64933;BME280;51446;53.850;10.662;2024-03-23T07:31:27;100362.00;;;9.89;100.00
64933;BME280;51446;53.850;10.662;2024-03-23T07:33:52;100364.78;;;10.02;100.00
64933;BME280;51446;53.850;10.662;2024-03-23T07:36:18;100359.06;;;10.35;100.00
64933;BME280;51446;53.850;10.662;2024-03-23T07:38:43;100363.88;;;9.98;100.00
64933;BME280;51446;53.850;10.662;2024-03-23T07:41:16;100357.59;;;9.16;100.00
64933;BME280;51446;53.850;10.662;2024-03-23T07:43:45;100360.34;;;9.95;100.00
64933;BME280;51446;53.850;10.662;2024-03-23T07:46:11;100359.00;;;10.32;100.00
64933;BME280;51446;53.850;10.662;2024-03-23T07:48:37;100355.66;;;10.46;100.00
64933;BME280;51446;53.850;10.662;2024-03-23T07:51:21;100359.41;;;9.89;100.00
64933;BME280;51446;53.850;10.662;2024-03-23T07:53:46;100357.66;;;9.88;100.00
64933;BME280;51446;53.850;10.662;2024-03-23T07:56:13;100361.56;;;9.51;100.00
64933;BME280;51446;53.850;10.662;2024-03-23T07:58:41;100356.09;;;9.34;100.00
64933;BME280;51446;53.850;10.662;2024-03-23T08:01:08;100352.19;;;9.70;100.00
64933;BME280;51446;53.850;10.662;2024-03-23T08:03:34;100352.63;;;8.78;100.00
64933;BME280;51446;53.850;10.662;2024-03-23T08:06:07;100353.69;;;8.91;100.00
64933;BME280;51446;53.850;10.662;2024-03-23T08:08:32;100346.44;;;9.31;100.00
64933;BME280;51446;53.850;10.662;2024-03-23T08:10:58;100339.84;;;8.97;100.00
64933;BME280;51446;53.850;10.662;2024-03-23T08:13:23;100341.91;;;9.19;100.00
64933;BME280;51446;53.850;10.662;2024-03-23T08:15:48;100343.00;;;9.35;100.00
64933;BME280;51446;53.850;10.662;2024-03-23T08:18:13;100335.09;;;9.31;100.00
64933;BME280;51446;53.850;10.662;2024-03-23T08:20:40;100336.97;;;10.15;100.00
64933;BME280;51446;53.850;10.662;2024-03-23T08:23:06;100334.00;;;10.67;100.00
64933;BME280;51446;53.850;10.662;2024-03-23T08:25:31;100326.94;;;12.10;100.00
64933;BME280;51446;53.850;10.662;2024-03-23T08:27:57;100336.44;;;11.84;100.00
64933;BME280;51446;53.850;10.662;2024-03-23T08:30:23;100329.47;;;11.89;100.00
64933;BME280;51446;53.850;10.662;2024-03-23T08:32:48;100326.78;;;13.71;100.00
64933;BME280;51446;53.850;10.662;2024-03-23T08:35:14;100326.06;;;12.13;100.00
64933;BME280;51446;53.850;10.662;2024-03-23T08:37:40;100324.34;;;12.97;100.00
64933;BME280;51446;53.850;10.662;2024-03-23T08:40:06;100328.06;;;10.91;100.00
64933;BME280;51446;53.850;10.662;2024-03-23T08:42:32;100327.81;;;10.60;100.00
64933;BME280;51446;53.850;10.662;2024-03-23T08:44:57;100317.97;;;11.65;100.00
64933;BME280;51446;53.850;10.662;2024-03-23T08:47:22;100314.13;;;10.00;100.00
64933;BME280;51446;53.850;10.662;2024-03-23T08:49:48;100320.69;;;9.62;100.00
64933;BME280;51446;53.850;10.662;2024-03-23T08:52:13;100320.00;;;9.80;100.00
64933;BME280;51446;53.850;10.662;2024-03-23T08:54:38;100317.66;;;10.05;100.00
64933;BME280;51446;53.850;10.662;2024-03-23T08:57:04;100305.19;;;10.71;100.00
64933;BME280;51446;53.850;10.662;2024-03-23T08:59:29;100313.63;;;9.55;100.00
64933;BME280;51446;53.850;10.662;2024-03-23T09:01:56;100301.53;;;10.51;100.00
64933;BME280;51446;53.850;10.662;2024-03-23T09:04:21;100300.38;;;10.24;100.00
64933;BME280;51446;53.850;10.662;2024-03-23T09:06:46;100288.41;;;12.65;100.00
64933;BME280;51446;53.850;10.662;2024-03-23T09:09:12;100284.00;;;12.87;100.00
64933;BME280;51446;53.850;10.662;2024-03-23T09:11:37;100290.91;;;11.92;100.00
64933;BME280;51446;53.850;10.662;2024-03-23T09:14:03;100287.50;;;12.66;100.00
64933;BME280;51446;53.850;10.662;2024-03-23T09:16:28;100283.09;;;12.94;100.00
64933;BME280;51446;53.850;10.662;2024-03-23T09:18:53;100277.63;;;13.68;100.00
64933;BME280;51446;53.850;10.662;2024-03-23T09:21:18;100287.31;;;13.62;100.00
64933;BME280;51446;53.850;10.662;2024-03-23T09:23:44;100287.31;;;13.63;100.00
64933;BME280;51446;53.850;10.662;2024-03-23T09:26:10;100280.44;;;13.14;100.00
64933;BME280;51446;53.850;10.662;2024-03-23T09:28:35;100275.84;;;11.34;100.00
64933;BME280;51446;53.850;10.662;2024-03-23T09:33:29;100274.06;;;14.94;100.00
64933;BME280;51446;53.850;10.662;2024-03-23T09:35:55;100271.16;;;14.20;100.00
64933;BME280;51446;53.850;10.662;2024-03-23T09:38:22;100273.47;;;17.19;100.00
64933;BME280;51446;53.850;10.662;2024-03-23T09:40:50;100274.06;;;15.68;100.00
64933;BME280;51446;53.850;10.662;2024-03-23T09:43:18;100269.13;;;12.49;100.00
64933;BME280;51446;53.850;10.662;2024-03-23T09:45:45;100272.66;;;10.46;100.00
64933;BME280;51446;53.850;10.662;2024-03-23T09:48:10;100267.59;;;10.69;100.00
64933;BME280;51446;53.850;10.662;2024-03-23T09:50:40;100266.28;;;11.45;100.00
64933;BME280;51446;53.850;10.662;2024-03-23T09:53:07;100275.28;;;12.42;100.00
64933;BME280;51446;53.850;10.662;2024-03-23T09:55:33;100253.28;;;12.86;100.00
64933;BME280;51446;53.850;10.662;2024-03-23T09:57:59;100250.28;;;13.85;100.00
64933;BME280;51446;53.850;10.662;2024-03-23T10:00:24;100251.00;;;14.09;100.00
64933;BME280;51446;53.850;10.662;2024-03-23T10:02:50;100249.06;;;15.27;100.00
64933;BME280;51446;53.850;10.662;2024-03-23T10:05:22;100250.97;;;15.14;100.00
64933;BME280;51446;53.850;10.662;2024-03-23T10:07:51;100247.91;;;13.37;100.00
64933;BME280;51446;53.850;10.662;2024-03-23T10:10:17;100245.41;;;11.96;100.00
64933;BME280;51446;53.850;10.662;2024-03-23T10:12:46;100248.75;;;11.46;100.00
64933;BME280;51446;53.850;10.662;2024-03-23T10:15:19;100241.63;;;11.19;100.00
64933;BME280;51446;53.850;10.662;2024-03-23T10:17:45;100247.69;;;11.01;100.00
64933;BME280;51446;53.850;10.662;2024-03-23T10:20:10;100247.13;;;10.28;100.00
64933;BME280;51446;53.850;10.662;2024-03-23T10:22:37;100244.09;;;9.07;100.00
64933;BME280;51446;53.850;10.662;2024-03-23T10:25:09;100242.09;;;8.90;100.00
64933;BME280;51446;53.850;10.662;2024-03-23T10:27:35;100238.88;;;10.89;100.00
64933;BME280;51446;53.850;10.662;2024-03-23T10:30:11;100228.59;;;11.31;100.00
64933;BME280;51446;53.850;10.662;2024-03-23T10:32:38;100234.72;;;13.43;100.00
64933;BME280;51446;53.850;10.662;2024-03-23T10:35:21;100222.25;;;13.76;100.00
64933;BME280;51446;53.850;10.662;2024-03-23T10:37:47;100230.25;;;13.58;100.00
64933;BME280;51446;53.850;10.662;2024-03-23T10:40:15;100223.75;;;14.10;100.00
64933;BME280;51446;53.850;10.662;2024-03-23T10:42:40;100221.47;;;14.73;100.00
64933;BME280;51446;53.850;10.662;2024-03-23T10:45:06;100214.78;;;16.44;100.00
64933;BME280;51446;53.850;10.662;2024-03-23T10:47:34;100207.44;;;16.08;100.00
64933;BME280;51446;53.850;10.662;2024-03-23T10:49:59;100219.78;;;13.44;100.00
64933;BME280;51446;53.850;10.662;2024-03-23T10:52:25;100212.91;;;14.48;100.00
64933;BME280;51446;53.850;10.662;2024-03-23T10:54:54;100211.44;;;15.06;100.00
64933;BME280;51446;53.850;10.662;2024-03-23T10:57:25;100213.31;;;13.94;100.00
64933;BME280;51446;53.850;10.662;2024-03-23T10:59:52;100211.28;;;12.35;100.00
64933;BME280;51446;53.850;10.662;2024-03-23T11:02:19;100214.44;;;13.59;100.00
64933;BME280;51446;53.850;10.662;2024-03-23T11:04:44;100194.63;;;14.27;100.00
64933;BME280;51446;53.850;10.662;2024-03-23T11:09:53;100201.03;;;16.22;100.00
64933;BME280;51446;53.850;10.662;2024-03-23T11:12:25;100197.28;;;16.35;100.00
64933;BME280;51446;53.850;10.662;2024-03-23T11:14:53;100201.97;;;16.69;100.00
64933;BME280;51446;53.850;10.662;2024-03-23T11:17:23;100191.69;;;14.61;100.00
64933;BME280;51446;53.850;10.662;2024-03-23T11:20:01;100185.97;;;15.01;100.00
64933;BME280;51446;53.850;10.662;2024-03-23T11:25:02;100194.63;;;12.05;100.00
64933;BME280;51446;53.850;10.662;2024-03-23T11:27:28;100190.88;;;13.25;100.00
64933;BME280;51446;53.850;10.662;2024-03-23T11:29:53;100191.13;;;14.26;100.00
64933;BME280;51446;53.850;10.662;2024-03-23T11:32:18;100186.06;;;13.98;100.00
64933;BME280;51446;53.850;10.662;2024-03-23T11:34:43;100191.78;;;13.12;100.00
64933;BME280;51446;53.850;10.662;2024-03-23T11:37:09;100186.41;;;10.89;100.00
64933;BME280;51446;53.850;10.662;2024-03-23T11:39:34;100195.97;;;10.81;100.00
64933;BME280;51446;53.850;10.662;2024-03-23T11:41:59;100192.63;;;11.10;100.00
64933;BME280;51446;53.850;10.662;2024-03-23T11:44:26;100187.13;;;10.61;100.00
64933;BME280;51446;53.850;10.662;2024-03-23T11:46:51;100186.44;;;10.94;100.00
64933;BME280;51446;53.850;10.662;2024-03-23T11:49:26;100184.19;;;10.22;100.00
64933;BME280;51446;53.850;10.662;2024-03-23T11:51:54;100190.22;;;10.10;100.00
64933;BME280;51446;53.850;10.662;2024-03-23T11:54:21;100185.00;;;10.13;100.00
64933;BME280;51446;53.850;10.662;2024-03-23T11:57:01;100183.19;;;10.03;100.00
64933;BME280;51446;53.850;10.662;2024-03-23T11:59:33;100187.00;;;10.44;100.00
64933;BME280;51446;53.850;10.662;2024-03-23T12:01:59;100177.69;;;10.93;100.00
64933;BME280;51446;53.850;10.662;2024-03-23T12:04:28;100170.78;;;11.14;100.00
64933;BME280;51446;53.850;10.662;2024-03-23T12:07:29;100184.81;;;13.00;100.00
64933;BME280;51446;53.850;10.662;2024-03-23T12:10:04;100186.56;;;13.07;100.00
64933;BME280;51446;53.850;10.662;2024-03-23T12:12:31;100193.59;;;12.99;100.00
64933;BME280;51446;53.850;10.662;2024-03-23T12:15:15;100206.91;;;12.05;100.00
64933;BME280;51446;53.850;10.662;2024-03-23T12:17:40;100218.09;;;11.30;100.00
64933;BME280;51446;53.850;10.662;2024-03-23T12:20:06;100223.94;;;9.75;100.00
64933;BME280;51446;53.850;10.662;2024-03-23T12:22:32;100212.84;;;9.19;100.00
64933;BME280;51446;53.850;10.662;2024-03-23T12:24:59;100207.53;;;9.91;100.00
64933;BME280;51446;53.850;10.662;2024-03-23T12:27:24;100193.03;;;10.32;100.00
64933;BME280;51446;53.850;10.662;2024-03-23T12:29:50;100205.16;;;10.20;100.00
64933;BME280;51446;53.850;10.662;2024-03-23T12:32:15;100192.53;;;10.96;100.00
64933;BME280;51446;53.850;10.662;2024-03-23T12:34:41;100193.66;;;11.66;100.00
64933;BME280;51446;53.850;10.662;2024-03-23T12:37:07;100190.25;;;12.06;100.00
64933;BME280;51446;53.850;10.662;2024-03-23T12:39:32;100186.66;;;12.70;100.00
64933;BME280;51446;53.850;10.662;2024-03-23T12:41:57;100196.19;;;11.31;100.00
64933;BME280;51446;53.850;10.662;2024-03-23T12:44:22;100190.91;;;11.18;100.00
64933;BME280;51446;53.850;10.662;2024-03-23T12:46:48;100189.75;;;10.62;100.00
64933;BME280;51446;53.850;10.662;2024-03-23T12:49:13;100192.75;;;10.01;100.00
64933;BME280;51446;53.850;10.662;2024-03-23T12:51:38;100216.69;;;9.49;100.00
64933;BME280;51446;53.850;10.662;2024-03-23T12:54:04;100205.31;;;9.44;100.00
64933;BME280;51446;53.850;10.662;2024-03-23T12:56:29;100224.50;;;8.77;100.00
64933;BME280;51446;53.850;10.662;2024-03-23T12:58:56;100224.63;;;8.84;100.00
64933;BME280;51446;53.850;10.662;2024-03-23T13:01:25;100225.25;;;8.68;100.00
64933;BME280;51446;53.850;10.662;2024-03-23T13:03:50;100221.75;;;8.67;100.00
64933;BME280;51446;53.850;10.662;2024-03-23T13:06:17;100226.06;;;8.65;100.00
64933;BME280;51446;53.850;10.662;2024-03-23T13:08:47;100222.84;;;8.83;100.00
64933;BME280;51446;53.850;10.662;2024-03-23T13:11:15;100241.00;;;8.74;100.00
64933;BME280;51446;53.850;10.662;2024-03-23T13:13:41;100222.72;;;9.42;100.00
64933;BME280;51446;53.850;10.662;2024-03-23T13:16:07;100225.00;;;9.94;100.00
64933;BME280;51446;53.850;10.662;2024-03-23T13:18:32;100233.63;;;9.83;100.00
64933;BME280;51446;53.850;10.662;2024-03-23T13:20:58;100228.84;;;9.42;100.00
64933;BME280;51446;53.850;10.662;2024-03-23T13:23:24;100227.47;;;9.03;100.00
64933;BME280;51446;53.850;10.662;2024-03-23T13:25:55;100239.06;;;8.61;100.00
64933;BME280;51446;53.850;10.662;2024-03-23T13:28:21;100246.16;;;8.68;100.00
64933;BME280;51446;53.850;10.662;2024-03-23T13:30:53;100236.69;;;9.41;100.00